createdAt,value
2019-04-23T00:02:06.641Z,12.30
2019-04-23T00:04:38.561Z,12.30
2019-04-23T00:07:26.551Z,12.30
2019-04-23T00:09:46.787Z,12.30
2019-04-23T00:12:26.517Z,12.20
2019-04-23T00:14:57.762Z,12.20
2019-04-23T00:17:26.813Z,12.20
2019-04-23T00:19:57.146Z,12.20
2019-04-23T00:22:28.961Z,12.10
2019-04-23T00:25:25.671Z,12.10
2019-04-23T00:27:47.700Z,12.10
2019-04-23T00:30:11.519Z,12.10
2019-04-23T00:32:39.167Z,12.10
2019-04-23T00:35:12.592Z,12.10
2019-04-23T00:37:49.660Z,12.10
2019-04-23T00:40:19.026Z,12.10
2019-04-23T00:42:47.465Z,12.00
2019-04-23T00:45:27.033Z,12.00
2019-04-23T00:53:01.825Z,12.00
2019-04-23T00:55:29.971Z,11.90
2019-04-23T00:58:12.557Z,11.90
2019-04-23T01:00:44.953Z,11.90
2019-04-23T01:05:41.042Z,11.90
2019-04-23T01:15:59.599Z,11.90
2019-04-23T01:18:38.185Z,11.90
2019-04-23T01:20:54.138Z,11.90
2019-04-23T01:23:20.615Z,11.90
2019-04-23T01:26:01.957Z,11.90
2019-04-23T01:28:51.829Z,11.90
2019-04-23T01:31:20.228Z,11.90
2019-04-23T01:36:31.559Z,11.90
2019-04-23T01:39:00.206Z,11.90
2019-04-23T01:41:35.964Z,11.90
2019-04-23T01:43:58.118Z,11.90
2019-04-23T01:46:45.801Z,11.80
2019-04-23T01:49:05.952Z,11.80
2019-04-23T01:54:09.540Z,11.70
2019-04-23T01:56:40.086Z,11.70
2019-04-23T01:59:20.063Z,11.70
2019-04-23T02:01:50.263Z,11.80
2019-04-23T02:04:24.408Z,11.70
2019-04-23T02:06:55.900Z,11.80
2019-04-23T02:09:25.803Z,11.80
2019-04-23T02:12:00.983Z,11.70
2019-04-23T02:14:37.864Z,11.70
2019-04-23T02:17:07.606Z,11.70
2019-04-23T02:19:42.019Z,11.70
2019-04-23T02:22:13.263Z,11.60
2019-04-23T02:24:47.917Z,11.60
2019-04-23T02:27:22.913Z,11.60
2019-04-23T02:30:05.863Z,11.60
2019-04-23T02:32:29.042Z,11.60
2019-04-23T02:37:45.146Z,11.50
2019-04-23T02:42:49.699Z,11.50
2019-04-23T02:45:09.102Z,11.40
2019-04-23T02:47:46.821Z,11.40
2019-04-23T02:50:33.632Z,11.40
2019-04-23T02:52:51.941Z,11.40
2019-04-23T02:57:54.311Z,11.30
2019-04-23T03:00:40.155Z,11.30
2019-04-23T03:02:59.162Z,11.30
2019-04-23T03:05:24.884Z,11.30
2019-04-23T03:10:31.273Z,11.20
2019-04-23T03:13:09.809Z,11.20
2019-04-23T03:15:57.210Z,11.10
2019-04-23T03:18:43.380Z,11.00
2019-04-23T03:21:26.183Z,11.00
2019-04-23T03:24:04.312Z,10.80
2019-04-23T03:29:03.974Z,10.90
2019-04-23T03:33:11.077Z,10.80
2019-04-23T03:36:39.660Z,10.70
2019-04-23T03:39:18.483Z,10.70
2019-04-23T03:44:02.123Z,10.60
2019-04-23T03:49:09.762Z,10.60
2019-04-23T03:51:56.519Z,10.60
2019-04-23T03:57:17.030Z,10.60
2019-04-23T03:59:37.003Z,10.50
2019-04-23T04:02:12.953Z,10.50
2019-04-23T04:07:22.578Z,10.50
2019-04-23T04:09:38.692Z,10.50
2019-04-23T04:12:07.792Z,10.50
2019-04-23T04:17:15.412Z,10.50
2019-04-23T04:29:52.291Z,10.40
2019-04-23T04:32:27.389Z,10.50
2019-04-23T04:35:12.614Z,10.40
2019-04-23T04:40:08.102Z,10.40
2019-04-23T04:42:33.803Z,10.40
2019-04-23T04:45:12.321Z,10.40
2019-04-23T04:47:41.779Z,10.50
2019-04-23T04:50:06.481Z,10.50
2019-04-23T04:53:00.680Z,10.50
2019-04-23T04:55:12.107Z,10.50
2019-04-23T05:00:23.558Z,10.60
2019-04-23T05:03:01.134Z,10.60
2019-04-23T05:08:09.246Z,10.70
2019-04-23T05:10:38.705Z,10.70
2019-04-23T05:13:18.936Z,10.70
2019-04-23T05:15:23.806Z,10.70
2019-04-23T05:18:08.428Z,10.70
2019-04-23T05:20:36.624Z,10.80
2019-04-23T05:25:31.776Z,10.80
2019-04-23T05:28:12.525Z,10.90
2019-04-23T05:30:44.651Z,10.90
2019-04-23T05:43:40.400Z,11.00
2019-04-23T05:46:22.289Z,11.10
2019-04-23T05:48:45.810Z,11.20
2019-04-23T05:51:38.835Z,11.20
2019-04-23T05:56:20.576Z,11.20
2019-04-23T05:58:58.035Z,11.30
2019-04-23T06:06:54.197Z,11.40
2019-04-23T06:09:08.030Z,11.40
2019-04-23T06:11:47.020Z,11.50
2019-04-23T06:16:41.977Z,11.60
2019-04-23T06:19:18.935Z,11.60
2019-04-23T06:24:27.376Z,11.80
2019-04-23T06:26:51.630Z,11.90
2019-04-23T06:29:26.030Z,11.90
2019-04-23T06:36:58.823Z,12.10
2019-04-23T06:39:35.978Z,12.20
2019-04-23T06:42:09.646Z,12.20
2019-04-23T06:44:37.683Z,12.30
2019-04-23T06:49:48.780Z,12.40
2019-04-23T06:52:18.725Z,12.50
2019-04-23T06:54:56.171Z,12.60
2019-04-23T06:57:22.415Z,12.60
2019-04-23T06:59:55.494Z,12.70
2019-04-23T07:02:27.284Z,12.70
2019-04-23T07:07:45.239Z,12.70
2019-04-23T07:09:57.904Z,12.80
2019-04-23T07:12:38.573Z,12.90
2019-04-23T07:15:27.673Z,13.00
2019-04-23T07:17:37.657Z,13.00
2019-04-23T07:20:12.903Z,13.10
2019-04-23T07:22:42.813Z,13.20
2019-04-23T07:25:17.562Z,13.30
2019-04-23T07:27:49.337Z,13.20
2019-04-23T07:30:29.261Z,13.50
2019-04-23T07:35:24.109Z,13.70
2019-04-23T07:38:01.837Z,13.80
2019-04-23T07:40:48.233Z,13.90
2019-04-23T07:43:15.314Z,13.90
2019-04-23T07:45:45.432Z,14.00
2019-04-23T07:50:55.177Z,14.20
2019-04-23T07:53:22.891Z,14.30
2019-04-23T08:01:01.626Z,14.40
2019-04-23T08:03:52.857Z,14.50
2019-04-23T08:06:04.315Z,14.60
2019-04-23T08:08:37.804Z,14.60
2019-04-23T08:13:55.671Z,14.70
2019-04-23T08:16:33.607Z,14.80
2019-04-23T08:18:54.051Z,14.80
2019-04-23T08:24:06.492Z,15.00
2019-04-23T08:26:48.185Z,15.10
2019-04-23T08:29:15.374Z,15.10
2019-04-23T08:31:50.430Z,15.10
2019-04-23T08:34:30.959Z,15.20
2019-04-23T08:37:00.107Z,15.20
2019-04-23T08:39:26.540Z,15.20
2019-04-23T08:42:23.294Z,15.30
2019-04-23T08:44:38.720Z,15.40
2019-04-23T08:47:21.758Z,15.50
2019-04-23T08:52:18.368Z,15.70
2019-04-23T08:55:02.617Z,15.90
2019-04-23T08:57:21.238Z,15.90
2019-04-23T08:59:55.677Z,15.90
2019-04-23T09:02:58.714Z,16.00
2019-04-23T09:05:00.182Z,16.10
2019-04-23T09:07:45.070Z,16.00
2019-04-23T09:10:04.421Z,16.10
2019-04-23T09:12:37.135Z,16.20
2019-04-23T09:15:09.657Z,16.40
2019-04-23T09:17:40.475Z,16.50
2019-04-23T09:20:18.476Z,16.60
2019-04-23T09:22:38.614Z,16.60
2019-04-23T09:25:20.273Z,16.60
2019-04-23T09:27:45.229Z,16.70
2019-04-23T09:30:22.259Z,16.80
2019-04-23T09:32:51.649Z,17.00
2019-04-23T09:35:27.445Z,17.20
2019-04-23T09:38:11.710Z,17.30
2019-04-23T09:43:39.475Z,17.50
2019-04-23T09:46:23.579Z,17.50
2019-04-23T09:51:23.536Z,17.50
2019-04-23T09:53:51.219Z,17.50
2019-04-23T09:56:32.438Z,17.50
2019-04-23T09:59:07.134Z,17.40
2019-04-23T10:03:50.862Z,17.50
2019-04-23T10:06:16.799Z,17.50
2019-04-23T10:08:49.427Z,17.50
2019-04-23T10:11:15.953Z,17.60
2019-04-23T10:13:46.470Z,17.70
2019-04-23T10:16:19.851Z,17.70
2019-04-23T10:18:50.987Z,17.80
2019-04-23T10:21:23.617Z,17.90
2019-04-23T10:23:55.048Z,17.90
2019-04-23T10:26:25.972Z,17.90
2019-04-23T10:29:00.180Z,18.10
2019-04-23T10:31:31.438Z,18.30
2019-04-23T10:34:02.360Z,18.40
2019-04-23T10:36:34.578Z,18.40
2019-04-23T10:39:14.967Z,18.50
2019-04-23T10:41:42.267Z,18.60
2019-04-23T10:44:28.691Z,18.50
2019-04-23T10:47:34.063Z,18.40
2019-04-23T10:50:37.549Z,18.50
2019-04-23T10:52:51.094Z,18.50
2019-04-23T10:55:14.581Z,18.70
2019-04-23T10:57:45.852Z,18.90
2019-04-23T11:00:15.936Z,19.10
2019-04-23T11:02:47.358Z,19.20
2019-04-23T11:05:35.969Z,19.40
2019-04-23T11:07:47.463Z,19.50
2019-04-23T11:10:25.748Z,19.60
2019-04-23T11:13:19.347Z,19.60
2019-04-23T11:16:27.419Z,19.30
2019-04-23T11:18:12.366Z,19.10
2019-04-23T11:20:48.042Z,19.10
2019-04-23T11:23:22.470Z,19.30
2019-04-23T11:25:48.950Z,19.50
2019-04-23T11:31:03.422Z,19.70
2019-04-23T11:33:37.874Z,19.60
2019-04-23T11:36:33.300Z,19.60
2019-04-23T11:41:23.323Z,19.80
2019-04-23T11:46:32.530Z,19.70
2019-04-23T11:53:54.370Z,19.60
2019-04-23T11:57:04.399Z,19.60
2019-04-23T11:58:58.338Z,19.70
2019-04-23T12:04:21.542Z,20.20
2019-04-23T12:12:17.270Z,20.50
2019-04-23T12:14:46.656Z,20.40
2019-04-23T12:17:29.405Z,20.20
2019-04-23T12:22:30.133Z,19.90
2019-04-23T12:27:31.381Z,20.10
2019-04-23T12:30:13.191Z,20.20
2019-04-23T12:35:12.939Z,20.30
2019-04-23T12:40:32.459Z,20.10
2019-04-23T12:45:27.023Z,20.10
2019-04-23T12:50:44.784Z,20.00
2019-04-23T12:53:00.624Z,20.00
2019-04-23T12:58:01.322Z,20.10
2019-04-23T13:03:08.523Z,20.00
2019-04-23T13:05:32.792Z,19.90
2019-04-23T13:10:45.206Z,19.90
2019-04-23T13:13:25.660Z,20.00
2019-04-23T13:15:48.819Z,20.10
2019-04-23T13:18:23.646Z,20.20
2019-04-23T13:20:51.479Z,20.00
2019-04-23T13:25:59.588Z,20.30
2019-04-23T13:28:40.169Z,20.30
2019-04-23T13:31:20.386Z,20.40
2019-04-23T13:41:20.388Z,20.10
2019-04-23T13:44:00.379Z,20.00
2019-04-23T13:46:28.812Z,20.00
2019-04-23T13:48:52.540Z,19.80
2019-04-23T13:53:59.360Z,19.80
2019-04-23T13:56:49.273Z,19.60
2019-04-23T13:59:26.445Z,19.60
2019-04-23T14:12:09.027Z,19.30
2019-04-23T14:14:49.094Z,19.20
2019-04-23T14:17:26.915Z,19.20
2019-04-23T14:19:45.733Z,19.20
2019-04-23T14:22:48.333Z,19.10
2019-04-23T14:25:07.883Z,19.20
2019-04-23T14:30:05.197Z,19.10
2019-04-23T14:35:10.939Z,18.90
2019-04-23T14:37:45.749Z,18.90
2019-04-23T14:42:56.765Z,18.80
2019-04-23T14:48:04.041Z,18.50
2019-04-23T14:53:16.026Z,18.30
2019-04-23T14:58:36.076Z,18.10
2019-04-23T15:00:56.870Z,17.90
2019-04-23T15:03:28.770Z,17.80
2019-04-23T15:06:06.750Z,17.80
2019-04-23T15:08:32.877Z,17.70
2019-04-23T15:13:27.540Z,17.50
2019-04-23T15:16:07.702Z,17.40
2019-04-23T15:28:37.352Z,17.20
2019-04-23T15:31:33.106Z,17.10
2019-04-23T15:34:07.570Z,17.10
2019-04-23T15:44:16.206Z,17.00
2019-04-23T15:46:53.335Z,16.90
2019-04-23T15:49:19.933Z,16.80
2019-04-23T15:54:28.129Z,16.80
2019-04-23T15:56:55.172Z,16.80
2019-04-23T15:59:33.387Z,16.80
2019-04-23T16:01:41.168Z,16.80
2019-04-23T16:04:01.357Z,16.80
2019-04-23T16:06:36.377Z,16.80
2019-04-23T16:09:28.421Z,16.80
2019-04-23T16:11:58.953Z,16.80
2019-04-23T16:17:14.928Z,16.70
2019-04-23T16:19:57.837Z,16.70
2019-04-23T16:22:24.832Z,16.70
2019-04-23T16:25:00.954Z,16.60
2019-04-23T16:27:20.067Z,16.50
2019-04-23T16:32:54.022Z,16.40
2019-04-23T16:35:28.911Z,16.40
2019-04-23T16:38:01.685Z,16.40
2019-04-23T16:40:27.942Z,16.30
2019-04-23T16:42:57.600Z,16.30
2019-04-23T16:48:09.355Z,16.20
2019-04-23T16:50:35.064Z,16.20
2019-04-23T16:53:11.553Z,16.10
2019-04-23T16:55:41.826Z,16.00
2019-04-23T17:00:51.274Z,15.90
2019-04-23T17:03:19.324Z,15.90
2019-04-23T17:05:50.885Z,15.90
2019-04-23T17:11:00.396Z,15.80
2019-04-23T17:13:24.185Z,15.80
2019-04-23T17:16:00.242Z,15.80
2019-04-23T17:20:58.319Z,15.70
2019-04-23T17:26:13.661Z,15.70
2019-04-23T17:28:56.252Z,15.60
2019-04-23T17:31:27.895Z,15.60
2019-04-23T17:33:41.734Z,15.60
2019-04-23T17:39:06.792Z,15.60
2019-04-23T17:41:42.943Z,15.60
2019-04-23T17:44:18.446Z,15.60
2019-04-23T17:46:44.994Z,15.60
2019-04-23T17:49:15.400Z,15.60
2019-04-23T17:51:50.973Z,15.60
2019-04-23T17:54:31.058Z,15.60
2019-04-23T17:57:55.846Z,15.70
2019-04-23T17:59:28.115Z,15.60
2019-04-23T18:02:19.062Z,15.70
2019-04-23T18:04:33.068Z,15.60
2019-04-23T18:07:09.546Z,15.70
2019-04-23T18:09:39.661Z,15.70
2019-04-23T18:12:12.710Z,15.70
2019-04-23T18:14:40.662Z,15.70
2019-04-23T18:17:20.804Z,15.70
2019-04-23T18:19:48.715Z,15.80
2019-04-23T18:27:51.463Z,15.80
2019-04-23T18:30:52.751Z,15.80
2019-04-23T18:38:13.664Z,16.00
2019-04-23T18:40:59.318Z,16.00
2019-04-23T18:43:25.067Z,16.00
2019-04-23T18:53:48.627Z,16.10
2019-04-23T19:01:11.014Z,16.20
2019-04-23T19:06:34.398Z,16.30
2019-04-23T19:09:12.195Z,16.40
2019-04-23T19:12:26.904Z,16.40
2019-04-23T19:17:35.772Z,16.40
2019-04-23T19:19:58.304Z,16.40
2019-04-23T19:22:21.739Z,16.40
2019-04-23T19:25:01.050Z,16.40
2019-04-23T19:29:58.003Z,16.40
2019-04-23T19:32:14.209Z,16.40
2019-04-23T19:34:52.933Z,16.40
2019-04-23T19:37:36.898Z,16.40
2019-04-23T19:39:54.314Z,16.40
2019-04-23T19:42:36.405Z,16.40
2019-04-23T19:45:04.806Z,16.50
2019-04-23T19:47:45.962Z,16.50
2019-04-23T19:50:15.285Z,16.50
2019-04-23T19:53:04.329Z,16.40
2019-04-23T19:55:35.271Z,16.40
2019-04-23T20:01:33.823Z,16.50
2019-04-23T20:03:56.170Z,16.40
2019-04-23T20:06:58.694Z,16.40
2019-04-23T20:09:37.411Z,16.40
2019-04-23T20:11:49.202Z,16.40
2019-04-23T20:17:17.602Z,16.40
2019-04-23T20:19:28.003Z,16.30
2019-04-23T20:22:09.226Z,16.30
2019-04-23T20:24:44.282Z,16.30
2019-04-23T20:26:59.294Z,16.20
2019-04-23T20:29:40.708Z,16.20
2019-04-23T20:32:57.588Z,16.20
2019-04-23T20:34:49.613Z,16.20
2019-04-23T20:37:06.186Z,16.10
2019-04-23T20:44:53.494Z,16.10
2019-04-23T20:47:26.469Z,16.10
2019-04-23T20:49:48.000Z,16.00
2019-04-23T20:52:12.913Z,16.00
2019-04-23T21:00:36.800Z,15.90
2019-04-23T21:16:16.949Z,15.80
2019-04-23T21:21:01.564Z,15.70
2019-04-23T21:25:58.865Z,15.70
2019-04-23T21:28:44.447Z,15.60
2019-04-23T21:31:32.066Z,15.60
2019-04-23T21:33:56.911Z,15.60
2019-04-23T21:36:25.384Z,15.50
2019-04-23T21:44:18.409Z,15.50
2019-04-23T21:46:49.532Z,15.40
2019-04-23T21:49:31.949Z,15.40
2019-04-23T21:54:12.929Z,15.40
2019-04-23T21:56:55.332Z,15.30
2019-04-23T21:59:28.637Z,15.30
2019-04-23T22:01:55.824Z,15.30
2019-04-23T22:04:36.195Z,15.30
2019-04-23T22:07:19.392Z,15.30
2019-04-23T22:12:15.048Z,15.20
2019-04-23T22:19:58.568Z,15.20
2019-04-23T22:22:22.126Z,15.10
2019-04-23T22:24:54.082Z,15.10
2019-04-23T22:27:16.249Z,15.10
2019-04-23T22:29:49.143Z,15.10
2019-04-23T22:32:34.294Z,15.10
2019-04-23T22:35:05.840Z,15.00
2019-04-23T22:37:35.371Z,15.00
2019-04-23T22:43:07.447Z,15.00
2019-04-23T22:46:22.932Z,15.00
2019-04-23T22:49:12.793Z,15.00
2019-04-23T22:51:42.118Z,14.90
2019-04-23T22:56:37.004Z,14.90
2019-04-23T23:02:03.889Z,14.80
2019-04-23T23:04:20.340Z,14.80
2019-04-23T23:06:55.200Z,14.80
2019-04-23T23:09:25.872Z,14.80
2019-04-23T23:11:54.743Z,14.70
2019-04-23T23:14:22.429Z,14.70
2019-04-23T23:16:58.527Z,14.70
2019-04-23T23:19:34.507Z,14.70
2019-04-23T23:22:02.094Z,14.70
2019-04-23T23:24:33.721Z,14.70
2019-04-23T23:27:09.072Z,14.70
2019-04-23T23:29:42.517Z,14.70
2019-04-23T23:32:11.121Z,14.60
2019-04-23T23:34:54.211Z,14.70
2019-04-23T23:42:18.227Z,14.60
2019-04-23T23:44:58.478Z,14.60
2019-04-23T23:50:00.874Z,14.60
2019-04-23T23:52:35.161Z,14.60
2019-04-23T23:54:59.319Z,14.60
